sensor_id;sensor_type;location;lat;lon;timestamp;P1;durP1;ratioP1;P2;durP2;ratioP2
2061;SDS011;11070;51.336;12.340;2023-04-20T00:01:07;14.80;;;11.57;;
2061;SDS011;11070;51.336;12.340;2023-04-20T00:03:33;13.27;;;10.97;;
2061;SDS011;11070;51.336;12.340;2023-04-20T00:05:59;13.55;;;10.85;;
2061;SDS011;11070;51.336;12.340;2023-04-20T00:08:26;13.85;;;11.27;;
2061;SDS011;11070;51.336;12.340;2023-04-20T00:10:52;13.80;;;10.73;;
2061;SDS011;11070;51.336;12.340;2023-04-20T00:13:18;13.97;;;11.83;;
2061;SDS011;11070;51.336;12.340;2023-04-20T00:15:43;14.50;;;11.47;;
2061;SDS011;11070;51.336;12.340;2023-04-20T00:18:09;13.60;;;11.10;;
2061;SDS011;11070;51.336;12.340;2023-04-20T00:20:35;13.40;;;11.00;;
2061;SDS011;11070;51.336;12.340;2023-04-20T00:23:01;15.90;;;12.17;;
2061;SDS011;11070;51.336;12.340;2023-04-20T00:25:27;13.70;;;10.87;;
2061;SDS011;11070;51.336;12.340;2023-04-20T00:27:54;14.55;;;11.75;;
2061;SDS011;11070;51.336;12.340;2023-04-20T00:30:20;13.30;;;11.38;;
2061;SDS011;11070;51.336;12.340;2023-04-20T00:32:46;13.32;;;11.10;;
2061;SDS011;11070;51.336;12.340;2023-04-20T00:35:12;13.03;;;11.37;;
2061;SDS011;11070;51.336;12.340;2023-04-20T00:37:38;14.53;;;11.60;;
2061;SDS011;11070;51.336;12.340;2023-04-20T00:40:04;14.87;;;12.10;;
2061;SDS011;11070;51.336;12.340;2023-04-20T00:42:31;13.00;;;11.52;;
2061;SDS011;11070;51.336;12.340;2023-04-20T00:44:56;13.67;;;10.90;;
2061;SDS011;11070;51.336;12.340;2023-04-20T00:47:22;13.73;;;11.33;;
2061;SDS011;11070;51.336;12.340;2023-04-20T00:49:48;13.60;;;11.80;;
2061;SDS011;11070;51.336;12.340;2023-04-20T00:52:14;14.00;;;11.53;;
2061;SDS011;11070;51.336;12.340;2023-04-20T00:54:39;13.50;;;12.07;;
2061;SDS011;11070;51.336;12.340;2023-04-20T00:57:06;13.20;;;10.90;;
2061;SDS011;11070;51.336;12.340;2023-04-20T00:59:32;13.77;;;11.50;;
2061;SDS011;11070;51.336;12.340;2023-04-20T01:01:57;14.07;;;11.80;;
2061;SDS011;11070;51.336;12.340;2023-04-20T01:04:23;14.00;;;11.70;;
2061;SDS011;11070;51.336;12.340;2023-04-20T01:06:50;13.00;;;10.88;;
2061;SDS011;11070;51.336;12.340;2023-04-20T01:09:15;12.93;;;11.03;;
2061;SDS011;11070;51.336;12.340;2023-04-20T01:11:41;13.77;;;11.50;;
2061;SDS011;11070;51.336;12.340;2023-04-20T01:14:07;12.67;;;11.20;;
2061;SDS011;11070;51.336;12.340;2023-04-20T01:16:32;13.90;;;11.80;;
2061;SDS011;11070;51.336;12.340;2023-04-20T01:19:00;14.55;;;12.00;;
2061;SDS011;11070;51.336;12.340;2023-04-20T01:21:26;12.17;;;10.87;;
2061;SDS011;11070;51.336;12.340;2023-04-20T01:23:52;13.93;;;10.95;;
2061;SDS011;11070;51.336;12.340;2023-04-20T01:26:18;12.43;;;10.60;;
2061;SDS011;11070;51.336;12.340;2023-04-20T01:28:45;14.85;;;11.73;;
2061;SDS011;11070;51.336;12.340;2023-04-20T01:31:11;12.75;;;11.45;;
2061;SDS011;11070;51.336;12.340;2023-04-20T01:33:37;12.18;;;10.88;;
2061;SDS011;11070;51.336;12.340;2023-04-20T01:36:04;14.93;;;12.57;;
2061;SDS011;11070;51.336;12.340;2023-04-20T01:38:30;13.18;;;10.60;;
2061;SDS011;11070;51.336;12.340;2023-04-20T01:40:58;12.57;;;10.45;;
2061;SDS011;11070;51.336;12.340;2023-04-20T01:43:28;12.48;;;10.88;;
2061;SDS011;11070;51.336;12.340;2023-04-20T01:45:54;12.32;;;10.23;;
2061;SDS011;11070;51.336;12.340;2023-04-20T01:48:20;11.97;;;10.60;;
2061;SDS011;11070;51.336;12.340;2023-04-20T01:50:48;12.40;;;10.10;;
2061;SDS011;11070;51.336;12.340;2023-04-20T01:53:15;11.90;;;9.50;;
2061;SDS011;11070;51.336;12.340;2023-04-20T01:55:41;12.50;;;10.00;;
2061;SDS011;11070;51.336;12.340;2023-04-20T01:58:07;12.27;;;9.93;;
2061;SDS011;11070;51.336;12.340;2023-04-20T02:00:32;13.73;;;10.33;;
2061;SDS011;11070;51.336;12.340;2023-04-20T02:02:58;13.40;;;11.20;;
2061;SDS011;11070;51.336;12.340;2023-04-20T02:05:23;13.43;;;11.00;;
2061;SDS011;11070;51.336;12.340;2023-04-20T02:07:49;12.40;;;10.80;;
2061;SDS011;11070;51.336;12.340;2023-04-20T02:10:15;12.60;;;10.67;;
2061;SDS011;11070;51.336;12.340;2023-04-20T02:12:41;16.73;;;12.13;;
2061;SDS011;11070;51.336;12.340;2023-04-20T02:15:07;13.67;;;10.87;;
2061;SDS011;11070;51.336;12.340;2023-04-20T02:17:33;14.13;;;11.00;;
2061;SDS011;11070;51.336;12.340;2023-04-20T02:20:01;14.02;;;10.23;;
2061;SDS011;11070;51.336;12.340;2023-04-20T02:22:36;14.57;;;11.35;;
2061;SDS011;11070;51.336;12.340;2023-04-20T02:25:03;14.05;;;11.70;;
2061;SDS011;11070;51.336;12.340;2023-04-20T02:27:32;12.52;;;10.38;;
2061;SDS011;11070;51.336;12.340;2023-04-20T02:29:58;12.85;;;10.30;;
2061;SDS011;11070;51.336;12.340;2023-04-20T02:32:24;14.10;;;10.25;;
2061;SDS011;11070;51.336;12.340;2023-04-20T02:34:50;11.98;;;10.65;;
2061;SDS011;11070;51.336;12.340;2023-04-20T02:37:16;12.23;;;10.57;;
2061;SDS011;11070;51.336;12.340;2023-04-20T02:39:42;13.20;;;10.53;;
2061;SDS011;11070;51.336;12.340;2023-04-20T02:42:07;13.17;;;11.57;;
2061;SDS011;11070;51.336;12.340;2023-04-20T02:44:33;14.17;;;10.27;;
2061;SDS011;11070;51.336;12.340;2023-04-20T02:46:59;14.80;;;11.60;;
2061;SDS011;11070;51.336;12.340;2023-04-20T02:49:24;14.20;;;10.87;;
2061;SDS011;11070;51.336;12.340;2023-04-20T02:51:50;15.33;;;12.37;;
2061;SDS011;11070;51.336;12.340;2023-04-20T02:54:16;14.27;;;11.03;;
2061;SDS011;11070;51.336;12.340;2023-04-20T02:56:41;13.30;;;11.50;;
2061;SDS011;11070;51.336;12.340;2023-04-20T02:59:07;13.17;;;11.20;;
2061;SDS011;11070;51.336;12.340;2023-04-20T03:01:33;12.48;;;10.98;;
2061;SDS011;11070;51.336;12.340;2023-04-20T03:03:59;13.50;;;11.40;;
2061;SDS011;11070;51.336;12.340;2023-04-20T03:06:24;15.30;;;12.57;;
2061;SDS011;11070;51.336;12.340;2023-04-20T03:08:50;12.63;;;10.48;;
2061;SDS011;11070;51.336;12.340;2023-04-20T03:11:16;16.80;;;11.90;;
2061;SDS011;11070;51.336;12.340;2023-04-20T03:13:42;16.37;;;11.43;;
2061;SDS011;11070;51.336;12.340;2023-04-20T03:16:07;14.87;;;12.53;;
2061;SDS011;11070;51.336;12.340;2023-04-20T03:18:33;11.70;;;10.00;;
2061;SDS011;11070;51.336;12.340;2023-04-20T03:20:59;13.47;;;11.20;;
2061;SDS011;11070;51.336;12.340;2023-04-20T03:23:24;12.53;;;10.63;;
2061;SDS011;11070;51.336;12.340;2023-04-20T03:25:50;13.63;;;11.00;;
2061;SDS011;11070;51.336;12.340;2023-04-20T03:28:16;13.43;;;10.87;;
2061;SDS011;11070;51.336;12.340;2023-04-20T03:30:41;12.97;;;10.50;;
2061;SDS011;11070;51.336;12.340;2023-04-20T03:33:07;15.63;;;12.07;;
2061;SDS011;11070;51.336;12.340;2023-04-20T03:35:33;14.77;;;10.67;;
2061;SDS011;11070;51.336;12.340;2023-04-20T03:37:59;13.10;;;10.60;;
2061;SDS011;11070;51.336;12.340;2023-04-20T03:40:25;10.68;;;9.40;;
2061;SDS011;11070;51.336;12.340;2023-04-20T03:42:51;10.17;;;8.40;;
2061;SDS011;11070;51.336;12.340;2023-04-20T03:45:16;8.60;;;7.70;;
2061;SDS011;11070;51.336;12.340;2023-04-20T03:47:42;10.90;;;8.80;;
2061;SDS011;11070;51.336;12.340;2023-04-20T03:50:08;8.83;;;7.40;;
2061;SDS011;11070;51.336;12.340;2023-04-20T03:52:34;9.73;;;8.40;;
2061;SDS011;11070;51.336;12.340;2023-04-20T03:55:00;9.05;;;7.95;;
2061;SDS011;11070;51.336;12.340;2023-04-20T03:57:26;7.93;;;7.03;;
2061;SDS011;11070;51.336;12.340;2023-04-20T03:59:51;7.57;;;6.87;;
2061;SDS011;11070;51.336;12.340;2023-04-20T04:02:17;7.67;;;6.43;;
2061;SDS011;11070;51.336;12.340;2023-04-20T04:04:42;7.53;;;6.70;;
2061;SDS011;11070;51.336;12.340;2023-04-20T04:07:09;7.15;;;6.47;;
2061;SDS011;11070;51.336;12.340;2023-04-20T04:09:35;6.73;;;6.10;;
2061;SDS011;11070;51.336;12.340;2023-04-20T04:12:00;7.10;;;6.40;;
2061;SDS011;11070;51.336;12.340;2023-04-20T04:14:28;6.72;;;6.03;;
2061;SDS011;11070;51.336;12.340;2023-04-20T04:16:54;6.70;;;6.03;;
2061;SDS011;11070;51.336;12.340;2023-04-20T04:19:20;5.83;;;5.33;;
2061;SDS011;11070;51.336;12.340;2023-04-20T04:21:45;6.80;;;6.10;;
2061;SDS011;11070;51.336;12.340;2023-04-20T04:24:11;6.70;;;6.07;;
2061;SDS011;11070;51.336;12.340;2023-04-20T04:26:37;6.67;;;6.07;;
2061;SDS011;11070;51.336;12.340;2023-04-20T04:29:02;6.60;;;5.97;;
2061;SDS011;11070;51.336;12.340;2023-04-20T04:31:31;6.43;;;5.55;;
2061;SDS011;11070;51.336;12.340;2023-04-20T04:33:57;6.15;;;5.60;;
2061;SDS011;11070;51.336;12.340;2023-04-20T04:36:23;6.97;;;6.27;;
2061;SDS011;11070;51.336;12.340;2023-04-20T04:38:50;6.40;;;5.80;;
2061;SDS011;11070;51.336;12.340;2023-04-20T04:41:16;6.20;;;5.65;;
2061;SDS011;11070;51.336;12.340;2023-04-20T04:43:43;6.60;;;5.93;;
2061;SDS011;11070;51.336;12.340;2023-04-20T04:46:09;7.32;;;6.35;;
2061;SDS011;11070;51.336;12.340;2023-04-20T04:48:38;6.50;;;5.90;;
2061;SDS011;11070;51.336;12.340;2023-04-20T04:51:07;7.53;;;6.82;;
2061;SDS011;11070;51.336;12.340;2023-04-20T04:53:33;8.90;;;7.10;;
2061;SDS011;11070;51.336;12.340;2023-04-20T04:55:59;8.77;;;7.88;;
2061;SDS011;11070;51.336;12.340;2023-04-20T04:58:25;8.10;;;7.30;;
2061;SDS011;11070;51.336;12.340;2023-04-20T05:00:51;9.53;;;8.30;;
2061;SDS011;11070;51.336;12.340;2023-04-20T05:03:16;9.07;;;8.10;;
2061;SDS011;11070;51.336;12.340;2023-04-20T05:05:42;9.47;;;8.20;;
2061;SDS011;11070;51.336;12.340;2023-04-20T05:08:08;10.37;;;9.10;;
2061;SDS011;11070;51.336;12.340;2023-04-20T05:10:33;11.00;;;9.30;;
2061;SDS011;11070;51.336;12.340;2023-04-20T05:12:59;13.80;;;10.77;;
2061;SDS011;11070;51.336;12.340;2023-04-20T05:15:25;12.57;;;9.90;;
2061;SDS011;11070;51.336;12.340;2023-04-20T05:17:51;15.95;;;10.57;;
2061;SDS011;11070;51.336;12.340;2023-04-20T05:20:17;13.57;;;10.90;;
2061;SDS011;11070;51.336;12.340;2023-04-20T05:22:43;16.17;;;11.35;;
2061;SDS011;11070;51.336;12.340;2023-04-20T05:25:09;13.40;;;10.50;;
2061;SDS011;11070;51.336;12.340;2023-04-20T05:27:35;14.00;;;10.93;;
2061;SDS011;11070;51.336;12.340;2023-04-20T05:30:01;14.00;;;11.30;;
2061;SDS011;11070;51.336;12.340;2023-04-20T05:32:27;17.13;;;12.80;;
2061;SDS011;11070;51.336;12.340;2023-04-20T05:34:53;18.83;;;13.10;;
2061;SDS011;11070;51.336;12.340;2023-04-20T05:37:18;17.13;;;13.20;;
2061;SDS011;11070;51.336;12.340;2023-04-20T05:39:44;20.50;;;14.93;;
2061;SDS011;11070;51.336;12.340;2023-04-20T05:42:10;16.90;;;13.75;;
2061;SDS011;11070;51.336;12.340;2023-04-20T05:44:36;17.85;;;14.07;;
2061;SDS011;11070;51.336;12.340;2023-04-20T05:47:03;19.05;;;13.70;;
2061;SDS011;11070;51.336;12.340;2023-04-20T05:49:30;19.52;;;14.25;;
2061;SDS011;11070;51.336;12.340;2023-04-20T05:51:56;18.13;;;14.15;;
2061;SDS011;11070;51.336;12.340;2023-04-20T05:54:22;18.77;;;14.50;;
2061;SDS011;11070;51.336;12.340;2023-04-20T05:56:48;18.80;;;14.37;;
2061;SDS011;11070;51.336;12.340;2023-04-20T05:59:14;19.43;;;14.20;;
2061;SDS011;11070;51.336;12.340;2023-04-20T06:01:41;20.38;;;15.25;;
2061;SDS011;11070;51.336;12.340;2023-04-20T06:04:06;19.87;;;14.90;;
2061;SDS011;11070;51.336;12.340;2023-04-20T06:06:32;19.30;;;14.57;;
2061;SDS011;11070;51.336;12.340;2023-04-20T06:08:58;18.60;;;14.43;;
2061;SDS011;11070;51.336;12.340;2023-04-20T06:11:24;17.70;;;13.97;;
2061;SDS011;11070;51.336;12.340;2023-04-20T06:13:49;20.17;;;15.67;;
2061;SDS011;11070;51.336;12.340;2023-04-20T06:16:15;20.23;;;15.73;;
2061;SDS011;11070;51.336;12.340;2023-04-20T06:18:41;17.73;;;14.60;;
2061;SDS011;11070;51.336;12.340;2023-04-20T06:21:10;19.73;;;14.80;;
2061;SDS011;11070;51.336;12.340;2023-04-20T06:23:36;19.45;;;15.30;;
2061;SDS011;11070;51.336;12.340;2023-04-20T06:26:02;17.17;;;13.73;;
2061;SDS011;11070;51.336;12.340;2023-04-20T06:28:28;19.55;;;14.75;;
2061;SDS011;11070;51.336;12.340;2023-04-20T06:30:54;21.63;;;15.87;;
2061;SDS011;11070;51.336;12.340;2023-04-20T06:33:20;19.27;;;15.17;;
2061;SDS011;11070;51.336;12.340;2023-04-20T06:35:45;18.67;;;15.40;;
2061;SDS011;11070;51.336;12.340;2023-04-20T06:38:11;21.63;;;16.67;;
2061;SDS011;11070;51.336;12.340;2023-04-20T06:40:37;18.43;;;15.07;;
2061;SDS011;11070;51.336;12.340;2023-04-20T06:43:02;20.10;;;15.80;;
2061;SDS011;11070;51.336;12.340;2023-04-20T06:45:28;19.60;;;15.63;;
2061;SDS011;11070;51.336;12.340;2023-04-20T06:47:53;20.50;;;15.67;;
2061;SDS011;11070;51.336;12.340;2023-04-20T06:50:19;17.03;;;14.90;;
2061;SDS011;11070;51.336;12.340;2023-04-20T06:52:46;20.20;;;15.00;;
2061;SDS011;11070;51.336;12.340;2023-04-20T06:55:12;19.85;;;15.25;;
2061;SDS011;11070;51.336;12.340;2023-04-20T06:57:38;18.93;;;16.07;;
2061;SDS011;11070;51.336;12.340;2023-04-20T07:00:06;19.07;;;14.20;;
2061;SDS011;11070;51.336;12.340;2023-04-20T07:05:09;16.40;;;13.75;;
2061;SDS011;11070;51.336;12.340;2023-04-20T07:07:36;17.45;;;14.00;;
2061;SDS011;11070;51.336;12.340;2023-04-20T07:10:02;16.77;;;13.75;;
2061;SDS011;11070;51.336;12.340;2023-04-20T07:12:28;16.50;;;14.50;;
2061;SDS011;11070;51.336;12.340;2023-04-20T07:14:54;17.47;;;14.23;;
2061;SDS011;11070;51.336;12.340;2023-04-20T07:17:19;18.07;;;14.93;;
2061;SDS011;11070;51.336;12.340;2023-04-20T07:19:45;18.63;;;14.90;;
2061;SDS011;11070;51.336;12.340;2023-04-20T07:22:11;19.40;;;15.63;;
2061;SDS011;11070;51.336;12.340;2023-04-20T07:24:36;20.27;;;15.60;;
2061;SDS011;11070;51.336;12.340;2023-04-20T07:27:02;18.67;;;14.77;;
2061;SDS011;11070;51.336;12.340;2023-04-20T07:29:28;20.30;;;15.50;;
2061;SDS011;11070;51.336;12.340;2023-04-20T07:31:53;20.67;;;15.83;;
2061;SDS011;11070;51.336;12.340;2023-04-20T07:34:19;18.10;;;15.50;;
2061;SDS011;11070;51.336;12.340;2023-04-20T07:36:46;18.75;;;14.32;;
2061;SDS011;11070;51.336;12.340;2023-04-20T07:39:11;18.17;;;14.53;;
2061;SDS011;11070;51.336;12.340;2023-04-20T07:41:37;18.50;;;13.63;;
2061;SDS011;11070;51.336;12.340;2023-04-20T07:44:03;16.93;;;14.17;;
2061;SDS011;11070;51.336;12.340;2023-04-20T07:46:28;14.17;;;12.40;;
2061;SDS011;11070;51.336;12.340;2023-04-20T07:48:54;14.77;;;13.18;;
2061;SDS011;11070;51.336;12.340;2023-04-20T07:51:20;15.87;;;13.00;;
2061;SDS011;11070;51.336;12.340;2023-04-20T07:53:45;15.67;;;13.10;;
2061;SDS011;11070;51.336;12.340;2023-04-20T07:56:11;17.00;;;13.37;;
2061;SDS011;11070;51.336;12.340;2023-04-20T07:58:37;16.90;;;13.00;;
2061;SDS011;11070;51.336;12.340;2023-04-20T08:01:04;13.60;;;12.10;;
2061;SDS011;11070;51.336;12.340;2023-04-20T08:03:31;13.65;;;12.15;;
2061;SDS011;11070;51.336;12.340;2023-04-20T08:05:57;14.60;;;12.90;;
2061;SDS011;11070;51.336;12.340;2023-04-20T08:08:23;15.93;;;13.03;;
2061;SDS011;11070;51.336;12.340;2023-04-20T08:10:49;13.43;;;12.03;;
2061;SDS011;11070;51.336;12.340;2023-04-20T08:13:14;14.20;;;12.70;;
2061;SDS011;11070;51.336;12.340;2023-04-20T08:15:40;13.90;;;11.83;;
2061;SDS011;11070;51.336;12.340;2023-04-20T08:18:05;14.37;;;11.90;;
2061;SDS011;11070;51.336;12.340;2023-04-20T08:20:31;15.17;;;11.90;;
2061;SDS011;11070;51.336;12.340;2023-04-20T08:22:57;14.25;;;11.70;;
2061;SDS011;11070;51.336;12.340;2023-04-20T08:25:23;14.33;;;11.47;;
2061;SDS011;11070;51.336;12.340;2023-04-20T08:27:49;12.90;;;10.73;;
2061;SDS011;11070;51.336;12.340;2023-04-20T08:30:14;11.90;;;10.70;;
2061;SDS011;11070;51.336;12.340;2023-04-20T08:32:40;13.10;;;10.20;;
2061;SDS011;11070;51.336;12.340;2023-04-20T08:35:06;11.50;;;10.40;;
2061;SDS011;11070;51.336;12.340;2023-04-20T08:37:32;11.10;;;10.00;;
2061;SDS011;11070;51.336;12.340;2023-04-20T08:39:58;10.73;;;9.63;;
2061;SDS011;11070;51.336;12.340;2023-04-20T08:42:24;11.40;;;10.30;;
2061;SDS011;11070;51.336;12.340;2023-04-20T08:44:49;11.83;;;10.10;;
2061;SDS011;11070;51.336;12.340;2023-04-20T08:47:17;11.20;;;10.10;;
2061;SDS011;11070;51.336;12.340;2023-04-20T08:49:43;10.73;;;9.63;;
2061;SDS011;11070;51.336;12.340;2023-04-20T08:52:10;11.73;;;10.45;;
2061;SDS011;11070;51.336;12.340;2023-04-20T08:54:36;11.40;;;10.30;;
2061;SDS011;11070;51.336;12.340;2023-04-20T08:57:02;13.07;;;11.73;;
2061;SDS011;11070;51.336;12.340;2023-04-20T08:59:29;12.27;;;11.07;;
2061;SDS011;11070;51.336;12.340;2023-04-20T09:01:55;13.40;;;12.00;;
2061;SDS011;11070;51.336;12.340;2023-04-20T09:04:24;13.43;;;12.03;;
2061;SDS011;11070;51.336;12.340;2023-04-20T09:06:53;14.25;;;12.85;;
2061;SDS011;11070;51.336;12.340;2023-04-20T09:09:21;15.05;;;13.32;;
2061;SDS011;11070;51.336;12.340;2023-04-20T09:11:58;15.70;;;14.10;;
2061;SDS011;11070;51.336;12.340;2023-04-20T09:14:40;15.30;;;13.70;;
2061;SDS011;11070;51.336;12.340;2023-04-20T09:17:07;13.80;;;12.40;;
2061;SDS011;11070;51.336;12.340;2023-04-20T09:19:32;14.77;;;13.30;;
2061;SDS011;11070;51.336;12.340;2023-04-20T09:21:58;15.73;;;14.13;;
2061;SDS011;11070;51.336;12.340;2023-04-20T09:24:31;14.52;;;12.85;;
2061;SDS011;11070;51.336;12.340;2023-04-20T09:26:59;15.95;;;14.25;;
2061;SDS011;11070;51.336;12.340;2023-04-20T09:29:26;13.55;;;12.18;;
2061;SDS011;11070;51.336;12.340;2023-04-20T09:31:52;16.55;;;13.93;;
2061;SDS011;11070;51.336;12.340;2023-04-20T09:34:18;15.52;;;14.00;;
2061;SDS011;11070;51.336;12.340;2023-04-20T09:36:48;14.50;;;13.00;;
2061;SDS011;11070;51.336;12.340;2023-04-20T09:39:16;16.10;;;14.50;;
2061;SDS011;11070;51.336;12.340;2023-04-20T09:41:44;15.02;;;13.43;;
2061;SDS011;11070;51.336;12.340;2023-04-20T09:44:10;14.98;;;13.45;;
2061;SDS011;11070;51.336;12.340;2023-04-20T09:46:37;14.68;;;13.10;;
2061;SDS011;11070;51.336;12.340;2023-04-20T09:49:05;12.98;;;11.75;;
2061;SDS011;11070;51.336;12.340;2023-04-20T09:51:32;12.40;;;10.98;;
2061;SDS011;11070;51.336;12.340;2023-04-20T09:53:59;16.38;;;13.35;;
2061;SDS011;11070;51.336;12.340;2023-04-20T09:56:26;13.60;;;12.20;;
2061;SDS011;11070;51.336;12.340;2023-04-20T09:58:53;12.52;;;11.32;;
2061;SDS011;11070;51.336;12.340;2023-04-20T10:01:19;12.82;;;11.60;;
2061;SDS011;11070;51.336;12.340;2023-04-20T10:03:48;12.43;;;11.23;;
2061;SDS011;11070;51.336;12.340;2023-04-20T10:06:30;12.85;;;11.45;;
2061;SDS011;11070;51.336;12.340;2023-04-20T10:09:00;12.90;;;11.70;;
2061;SDS011;11070;51.336;12.340;2023-04-20T10:11:30;13.18;;;11.77;;
2061;SDS011;11070;51.336;12.340;2023-04-20T10:13:57;14.48;;;11.70;;
2061;SDS011;11070;51.336;12.340;2023-04-20T10:16:24;14.02;;;11.80;;
2061;SDS011;11070;51.336;12.340;2023-04-20T10:19:01;13.23;;;11.70;;
2061;SDS011;11070;51.336;12.340;2023-04-20T10:21:28;12.73;;;11.05;;
2061;SDS011;11070;51.336;12.340;2023-04-20T10:23:56;18.83;;;10.73;;
2061;SDS011;11070;51.336;12.340;2023-04-20T10:26:34;13.50;;;9.85;;
2061;SDS011;11070;51.336;12.340;2023-04-20T10:29:04;11.10;;;9.20;;
2061;SDS011;11070;51.336;12.340;2023-04-20T10:31:36;10.02;;;9.00;;
2061;SDS011;11070;51.336;12.340;2023-04-20T10:34:06;10.00;;;9.10;;
2061;SDS011;11070;51.336;12.340;2023-04-20T10:36:33;9.95;;;8.95;;
2061;SDS011;11070;51.336;12.340;2023-04-20T10:39:13;11.75;;;10.40;;
2061;SDS011;11070;51.336;12.340;2023-04-20T10:41:54;12.00;;;10.43;;
2061;SDS011;11070;51.336;12.340;2023-04-20T10:44:25;10.02;;;9.02;;
2061;SDS011;11070;51.336;12.340;2023-04-20T10:46:51;10.23;;;9.25;;
2061;SDS011;11070;51.336;12.340;2023-04-20T10:49:17;11.65;;;9.52;;
2061;SDS011;11070;51.336;12.340;2023-04-20T10:51:50;11.40;;;10.30;;
2061;SDS011;11070;51.336;12.340;2023-04-20T10:54:16;14.38;;;10.68;;
2061;SDS011;11070;51.336;12.340;2023-04-20T10:56:44;12.27;;;11.02;;
2061;SDS011;11070;51.336;12.340;2023-04-20T10:59:15;12.85;;;11.00;;
2061;SDS011;11070;51.336;12.340;2023-04-20T11:01:48;11.52;;;10.35;;
2061;SDS011;11070;51.336;12.340;2023-04-20T11:04:14;12.45;;;11.13;;
2061;SDS011;11070;51.336;12.340;2023-04-20T11:06:41;13.57;;;11.77;;
2061;SDS011;11070;51.336;12.340;2023-04-20T11:11:43;14.10;;;12.60;;
2061;SDS011;11070;51.336;12.340;2023-04-20T11:14:10;14.00;;;12.50;;
2061;SDS011;11070;51.336;12.340;2023-04-20T11:16:36;15.30;;;12.38;;
2061;SDS011;11070;51.336;12.340;2023-04-20T11:19:04;14.80;;;12.65;;
2061;SDS011;11070;51.336;12.340;2023-04-20T11:24:04;14.70;;;13.20;;
2061;SDS011;11070;51.336;12.340;2023-04-20T11:26:37;14.75;;;12.35;;
2061;SDS011;11070;51.336;12.340;2023-04-20T11:29:04;14.57;;;12.50;;
2061;SDS011;11070;51.336;12.340;2023-04-20T11:31:30;13.57;;;12.17;;
2061;SDS011;11070;51.336;12.340;2023-04-20T11:33:56;13.30;;;11.90;;
2061;SDS011;11070;51.336;12.340;2023-04-20T11:36:22;13.25;;;11.85;;
2061;SDS011;11070;51.336;12.340;2023-04-20T11:38:50;14.35;;;12.85;;
2061;SDS011;11070;51.336;12.340;2023-04-20T11:41:16;15.60;;;13.38;;
2061;SDS011;11070;51.336;12.340;2023-04-20T11:43:42;16.13;;;13.07;;
2061;SDS011;11070;51.336;12.340;2023-04-20T11:46:13;15.07;;;13.05;;
2061;SDS011;11070;51.336;12.340;2023-04-20T11:48:45;15.05;;;13.40;;
2061;SDS011;11070;51.336;12.340;2023-04-20T11:51:12;15.05;;;13.02;;
2061;SDS011;11070;51.336;12.340;2023-04-20T11:53:38;16.60;;;14.02;;
2061;SDS011;11070;51.336;12.340;2023-04-20T11:56:04;16.00;;;13.43;;
2061;SDS011;11070;51.336;12.340;2023-04-20T11:58:30;16.75;;;14.30;;
2061;SDS011;11070;51.336;12.340;2023-04-20T12:00:56;15.90;;;13.47;;
2061;SDS011;11070;51.336;12.340;2023-04-20T12:03:22;16.80;;;14.23;;
2061;SDS011;11070;51.336;12.340;2023-04-20T12:05:48;18.20;;;14.50;;
2061;SDS011;11070;51.336;12.340;2023-04-20T12:08:13;17.10;;;13.30;;
2061;SDS011;11070;51.336;12.340;2023-04-20T12:10:41;16.80;;;13.65;;
2061;SDS011;11070;51.336;12.340;2023-04-20T12:13:07;14.53;;;12.60;;
2061;SDS011;11070;51.336;12.340;2023-04-20T12:15:32;16.13;;;13.63;;
2061;SDS011;11070;51.336;12.340;2023-04-20T12:17:58;16.70;;;13.00;;
2061;SDS011;11070;51.336;12.340;2023-04-20T12:20:24;14.10;;;12.60;;
2061;SDS011;11070;51.336;12.340;2023-04-20T12:22:49;19.33;;;14.00;;
2061;SDS011;11070;51.336;12.340;2023-04-20T12:25:15;18.10;;;13.80;;
2061;SDS011;11070;51.336;12.340;2023-04-20T12:27:41;16.03;;;13.13;;
2061;SDS011;11070;51.336;12.340;2023-04-20T12:30:07;16.37;;;14.00;;
2061;SDS011;11070;51.336;12.340;2023-04-20T12:32:33;16.38;;;13.50;;
2061;SDS011;11070;51.336;12.340;2023-04-20T12:34:59;16.42;;;14.60;;
2061;SDS011;11070;51.336;12.340;2023-04-20T12:37:25;17.45;;;14.45;;
2061;SDS011;11070;51.336;12.340;2023-04-20T12:39:51;17.53;;;14.47;;
2061;SDS011;11070;51.336;12.340;2023-04-20T12:42:17;19.40;;;15.93;;
2061;SDS011;11070;51.336;12.340;2023-04-20T12:44:43;19.75;;;15.45;;
2061;SDS011;11070;51.336;12.340;2023-04-20T12:47:09;21.17;;;16.37;;
2061;SDS011;11070;51.336;12.340;2023-04-20T12:49:34;19.93;;;16.40;;
2061;SDS011;11070;51.336;12.340;2023-04-20T12:52:00;20.60;;;17.10;;
2061;SDS011;11070;51.336;12.340;2023-04-20T12:54:29;21.55;;;16.75;;
2061;SDS011;11070;51.336;12.340;2023-04-20T12:56:55;21.13;;;15.77;;
2061;SDS011;11070;51.336;12.340;2023-04-20T12:59:21;25.70;;;17.40;;
2061;SDS011;11070;51.336;12.340;2023-04-20T13:01:46;22.90;;;18.33;;
2061;SDS011;11070;51.336;12.340;2023-04-20T13:04:12;22.87;;;18.90;;
2061;SDS011;11070;51.336;12.340;2023-04-20T13:06:40;25.00;;;19.55;;
2061;SDS011;11070;51.336;12.340;2023-04-20T13:09:05;23.00;;;18.85;;
2061;SDS011;11070;51.336;12.340;2023-04-20T13:11:31;22.97;;;18.70;;
2061;SDS011;11070;51.336;12.340;2023-04-20T13:13:57;25.77;;;19.30;;
2061;SDS011;11070;51.336;12.340;2023-04-20T13:16:23;25.97;;;19.40;;
2061;SDS011;11070;51.336;12.340;2023-04-20T13:18:49;23.88;;;18.67;;
2061;SDS011;11070;51.336;12.340;2023-04-20T13:21:14;25.80;;;18.30;;
2061;SDS011;11070;51.336;12.340;2023-04-20T13:23:40;25.10;;;19.73;;
2061;SDS011;11070;51.336;12.340;2023-04-20T13:26:06;25.63;;;19.90;;
2061;SDS011;11070;51.336;12.340;2023-04-20T13:28:32;24.10;;;18.50;;
2061;SDS011;11070;51.336;12.340;2023-04-20T13:30:58;23.10;;;18.30;;
2061;SDS011;11070;51.336;12.340;2023-04-20T13:33:23;24.30;;;19.10;;
2061;SDS011;11070;51.336;12.340;2023-04-20T13:35:50;25.08;;;18.27;;
2061;SDS011;11070;51.336;12.340;2023-04-20T13:38:16;24.05;;;18.40;;
2061;SDS011;11070;51.336;12.340;2023-04-20T13:40:42;23.35;;;18.15;;
2061;SDS011;11070;51.336;12.340;2023-04-20T13:43:08;24.30;;;18.50;;
2061;SDS011;11070;51.336;12.340;2023-04-20T13:45:34;24.27;;;18.97;;
2061;SDS011;11070;51.336;12.340;2023-04-20T13:48:00;26.58;;;19.48;;
2061;SDS011;11070;51.336;12.340;2023-04-20T13:50:26;24.00;;;18.10;;
2061;SDS011;11070;51.336;12.340;2023-04-20T13:52:52;25.10;;;18.10;;
2061;SDS011;11070;51.336;12.340;2023-04-20T13:55:17;23.33;;;18.53;;
2061;SDS011;11070;51.336;12.340;2023-04-20T13:57:44;26.65;;;18.70;;
2061;SDS011;11070;51.336;12.340;2023-04-20T14:00:11;29.15;;;19.85;;
2061;SDS011;11070;51.336;12.340;2023-04-20T14:02:37;23.85;;;18.42;;
2061;SDS011;11070;51.336;12.340;2023-04-20T14:05:03;25.90;;;18.80;;
2061;SDS011;11070;51.336;12.340;2023-04-20T14:07:30;28.80;;;18.17;;
2061;SDS011;11070;51.336;12.340;2023-04-20T14:09:56;27.70;;;18.83;;
2061;SDS011;11070;51.336;12.340;2023-04-20T14:12:24;26.58;;;19.25;;
2061;SDS011;11070;51.336;12.340;2023-04-20T14:14:51;27.65;;;19.45;;
2061;SDS011;11070;51.336;12.340;2023-04-20T14:17:17;32.10;;;20.55;;
2061;SDS011;11070;51.336;12.340;2023-04-20T14:19:43;25.57;;;19.30;;
2061;SDS011;11070;51.336;12.340;2023-04-20T14:22:09;27.60;;;19.57;;
2061;SDS011;11070;51.336;12.340;2023-04-20T14:24:34;27.07;;;19.47;;
2061;SDS011;11070;51.336;12.340;2023-04-20T14:27:00;30.10;;;20.80;;